sensor_id;sensor_type;location;lat;lon;timestamp;P1;durP1;ratioP1;P2;durP2;ratioP2
49578;SDS011;35483;50.828;3.228;2023-04-15T00:01:24;1.77;;;1.67;;
49578;SDS011;35483;50.828;3.228;2023-04-15T00:03:51;2.10;;;1.90;;
49578;SDS011;35483;50.828;3.228;2023-04-15T00:06:18;2.65;;;2.15;;
49578;SDS011;35483;50.828;3.228;2023-04-15T00:08:45;2.17;;;1.80;;
49578;SDS011;35483;50.828;3.228;2023-04-15T00:11:10;2.80;;;1.75;;
49578;SDS011;35483;50.828;3.228;2023-04-15T00:13:36;3.17;;;2.00;;
49578;SDS011;35483;50.828;3.228;2023-04-15T00:16:03;1.80;;;1.60;;
49578;SDS011;35483;50.828;3.228;2023-04-15T00:18:30;2.33;;;2.00;;
49578;SDS011;35483;50.828;3.228;2023-04-15T00:20:56;1.95;;;1.77;;
49578;SDS011;35483;50.828;3.228;2023-04-15T00:23:22;1.85;;;1.70;;
49578;SDS011;35483;50.828;3.228;2023-04-15T00:25:48;2.25;;;1.90;;
49578;SDS011;35483;50.828;3.228;2023-04-15T00:28:14;1.75;;;1.65;;
49578;SDS011;35483;50.828;3.228;2023-04-15T00:30:40;3.03;;;1.90;;
49578;SDS011;35483;50.828;3.228;2023-04-15T00:33:06;2.75;;;2.10;;
49578;SDS011;35483;50.828;3.228;2023-04-15T00:35:32;2.30;;;1.95;;
49578;SDS011;35483;50.828;3.228;2023-04-15T00:37:58;1.70;;;1.60;;
49578;SDS011;35483;50.828;3.228;2023-04-15T00:40:24;2.22;;;1.98;;
49578;SDS011;35483;50.828;3.228;2023-04-15T00:42:50;2.25;;;2.05;;
49578;SDS011;35483;50.828;3.228;2023-04-15T00:45:16;2.42;;;2.08;;
49578;SDS011;35483;50.828;3.228;2023-04-15T00:47:42;2.10;;;2.00;;
49578;SDS011;35483;50.828;3.228;2023-04-15T00:50:09;2.80;;;2.60;;
49578;SDS011;35483;50.828;3.228;2023-04-15T00:52:36;3.22;;;2.67;;
49578;SDS011;35483;50.828;3.228;2023-04-15T00:55:03;3.30;;;3.00;;
49578;SDS011;35483;50.828;3.228;2023-04-15T00:57:30;2.78;;;2.47;;
49578;SDS011;35483;50.828;3.228;2023-04-15T00:59:56;2.28;;;2.08;;
49578;SDS011;35483;50.828;3.228;2023-04-15T01:02:23;2.67;;;2.47;;
49578;SDS011;35483;50.828;3.228;2023-04-15T01:04:49;2.90;;;2.67;;
49578;SDS011;35483;50.828;3.228;2023-04-15T01:07:15;3.15;;;2.50;;
49578;SDS011;35483;50.828;3.228;2023-04-15T01:09:41;2.90;;;2.35;;
49578;SDS011;35483;50.828;3.228;2023-04-15T01:12:08;3.45;;;2.60;;
49578;SDS011;35483;50.828;3.228;2023-04-15T01:14:38;2.63;;;2.42;;
49578;SDS011;35483;50.828;3.228;2023-04-15T01:17:03;2.70;;;2.50;;
49578;SDS011;35483;50.828;3.228;2023-04-15T01:19:29;3.13;;;2.83;;
49578;SDS011;35483;50.828;3.228;2023-04-15T01:21:56;3.42;;;3.13;;
49578;SDS011;35483;50.828;3.228;2023-04-15T01:24:22;3.35;;;2.90;;
49578;SDS011;35483;50.828;3.228;2023-04-15T01:26:50;3.88;;;3.47;;
49578;SDS011;35483;50.828;3.228;2023-04-15T01:29:16;3.88;;;3.50;;
49578;SDS011;35483;50.828;3.228;2023-04-15T01:31:53;5.65;;;4.38;;
49578;SDS011;35483;50.828;3.228;2023-04-15T01:34:20;4.65;;;4.15;;
49578;SDS011;35483;50.828;3.228;2023-04-15T01:36:47;4.53;;;4.07;;
49578;SDS011;35483;50.828;3.228;2023-04-15T01:39:13;5.13;;;3.92;;
49578;SDS011;35483;50.828;3.228;2023-04-15T01:41:39;4.82;;;4.07;;
49578;SDS011;35483;50.828;3.228;2023-04-15T01:44:06;5.30;;;4.30;;
49578;SDS011;35483;50.828;3.228;2023-04-15T01:46:32;4.57;;;4.18;;
49578;SDS011;35483;50.828;3.228;2023-04-15T01:48:58;5.22;;;4.43;;
49578;SDS011;35483;50.828;3.228;2023-04-15T01:51:23;4.85;;;4.35;;
49578;SDS011;35483;50.828;3.228;2023-04-15T01:53:49;4.60;;;4.20;;
49578;SDS011;35483;50.828;3.228;2023-04-15T01:56:16;5.07;;;4.68;;
49578;SDS011;35483;50.828;3.228;2023-04-15T01:58:42;5.30;;;4.80;;
49578;SDS011;35483;50.828;3.228;2023-04-15T02:01:08;5.57;;;4.93;;
49578;SDS011;35483;50.828;3.228;2023-04-15T02:03:35;6.72;;;5.07;;
49578;SDS011;35483;50.828;3.228;2023-04-15T02:06:01;5.22;;;4.72;;
49578;SDS011;35483;50.828;3.228;2023-04-15T02:08:28;5.25;;;4.75;;
49578;SDS011;35483;50.828;3.228;2023-04-15T02:10:54;6.55;;;5.10;;
49578;SDS011;35483;50.828;3.228;2023-04-15T02:13:20;4.82;;;4.40;;
49578;SDS011;35483;50.828;3.228;2023-04-15T02:15:48;5.53;;;4.88;;
49578;SDS011;35483;50.828;3.228;2023-04-15T02:18:15;6.25;;;5.47;;
49578;SDS011;35483;50.828;3.228;2023-04-15T02:20:41;6.90;;;5.82;;
49578;SDS011;35483;50.828;3.228;2023-04-15T02:23:08;8.43;;;6.35;;
49578;SDS011;35483;50.828;3.228;2023-04-15T02:25:33;6.68;;;5.97;;
49578;SDS011;35483;50.828;3.228;2023-04-15T02:27:59;6.25;;;5.43;;
49578;SDS011;35483;50.828;3.228;2023-04-15T02:30:25;5.65;;;5.15;;
49578;SDS011;35483;50.828;3.228;2023-04-15T02:32:51;4.90;;;4.50;;
49578;SDS011;35483;50.828;3.228;2023-04-15T02:35:16;5.82;;;4.82;;
49578;SDS011;35483;50.828;3.228;2023-04-15T02:37:45;4.90;;;4.50;;
49578;SDS011;35483;50.828;3.228;2023-04-15T02:40:12;5.10;;;4.18;;
49578;SDS011;35483;50.828;3.228;2023-04-15T02:42:39;5.28;;;4.78;;
49578;SDS011;35483;50.828;3.228;2023-04-15T02:45:05;4.93;;;4.03;;
49578;SDS011;35483;50.828;3.228;2023-04-15T02:47:32;6.03;;;4.25;;
49578;SDS011;35483;50.828;3.228;2023-04-15T02:49:58;6.03;;;4.03;;
49578;SDS011;35483;50.828;3.228;2023-04-15T02:52:26;4.35;;;3.97;;
49578;SDS011;35483;50.828;3.228;2023-04-15T02:54:52;5.30;;;4.57;;
49578;SDS011;35483;50.828;3.228;2023-04-15T02:57:21;7.00;;;5.10;;
49578;SDS011;35483;50.828;3.228;2023-04-15T02:59:47;6.20;;;4.85;;
49578;SDS011;35483;50.828;3.228;2023-04-15T03:02:13;4.68;;;4.18;;
49578;SDS011;35483;50.828;3.228;2023-04-15T03:04:38;4.75;;;4.35;;
49578;SDS011;35483;50.828;3.228;2023-04-15T03:07:04;5.03;;;4.53;;
49578;SDS011;35483;50.828;3.228;2023-04-15T03:09:30;6.70;;;5.82;;
49578;SDS011;35483;50.828;3.228;2023-04-15T03:11:56;6.10;;;5.50;;
49578;SDS011;35483;50.828;3.228;2023-04-15T03:14:21;8.25;;;6.93;;
49578;SDS011;35483;50.828;3.228;2023-04-15T03:16:47;9.15;;;7.75;;
49578;SDS011;35483;50.828;3.228;2023-04-15T03:19:14;10.98;;;9.43;;
49578;SDS011;35483;50.828;3.228;2023-04-15T03:21:40;10.23;;;8.55;;
49578;SDS011;35483;50.828;3.228;2023-04-15T03:24:06;8.68;;;7.55;;
49578;SDS011;35483;50.828;3.228;2023-04-15T03:26:33;8.20;;;5.43;;
49578;SDS011;35483;50.828;3.228;2023-04-15T03:28:58;5.45;;;4.93;;
49578;SDS011;35483;50.828;3.228;2023-04-15T03:31:24;5.07;;;3.58;;
49578;SDS011;35483;50.828;3.228;2023-04-15T03:33:51;5.05;;;3.88;;
49578;SDS011;35483;50.828;3.228;2023-04-15T03:36:17;4.20;;;3.80;;
49578;SDS011;35483;50.828;3.228;2023-04-15T03:38:42;4.10;;;3.70;;
49578;SDS011;35483;50.828;3.228;2023-04-15T03:41:08;4.38;;;3.65;;
49578;SDS011;35483;50.828;3.228;2023-04-15T03:43:34;4.15;;;3.80;;
49578;SDS011;35483;50.828;3.228;2023-04-15T03:46:00;4.03;;;3.72;;
49578;SDS011;35483;50.828;3.228;2023-04-15T03:48:26;4.10;;;3.70;;
49578;SDS011;35483;50.828;3.228;2023-04-15T03:50:51;5.43;;;4.13;;
49578;SDS011;35483;50.828;3.228;2023-04-15T03:53:17;4.40;;;4.00;;
49578;SDS011;35483;50.828;3.228;2023-04-15T03:55:43;5.13;;;4.40;;
49578;SDS011;35483;50.828;3.228;2023-04-15T03:58:09;5.28;;;4.68;;
49578;SDS011;35483;50.828;3.228;2023-04-15T04:00:37;4.75;;;4.25;;
49578;SDS011;35483;50.828;3.228;2023-04-15T04:03:04;5.18;;;4.65;;
49578;SDS011;35483;50.828;3.228;2023-04-15T04:05:30;5.05;;;4.55;;
49578;SDS011;35483;50.828;3.228;2023-04-15T04:07:57;6.43;;;5.53;;
49578;SDS011;35483;50.828;3.228;2023-04-15T04:10:23;7.00;;;6.18;;
49578;SDS011;35483;50.828;3.228;2023-04-15T04:12:48;6.78;;;6.05;;
49578;SDS011;35483;50.828;3.228;2023-04-15T04:15:14;6.88;;;6.15;;
49578;SDS011;35483;50.828;3.228;2023-04-15T04:17:40;7.07;;;6.13;;
49578;SDS011;35483;50.828;3.228;2023-04-15T04:20:06;7.97;;;6.80;;
49578;SDS011;35483;50.828;3.228;2023-04-15T04:22:36;7.30;;;6.03;;
49578;SDS011;35483;50.828;3.228;2023-04-15T04:25:03;8.45;;;7.28;;
49578;SDS011;35483;50.828;3.228;2023-04-15T04:27:29;7.72;;;6.35;;
49578;SDS011;35483;50.828;3.228;2023-04-15T04:29:55;7.95;;;6.75;;
49578;SDS011;35483;50.828;3.228;2023-04-15T04:32:21;7.88;;;6.70;;
49578;SDS011;35483;50.828;3.228;2023-04-15T04:34:46;7.60;;;6.70;;
49578;SDS011;35483;50.828;3.228;2023-04-15T04:37:12;8.80;;;7.05;;
49578;SDS011;35483;50.828;3.228;2023-04-15T04:39:38;7.47;;;6.38;;
49578;SDS011;35483;50.828;3.228;2023-04-15T04:42:04;9.70;;;7.63;;
49578;SDS011;35483;50.828;3.228;2023-04-15T04:44:30;7.97;;;6.50;;
49578;SDS011;35483;50.828;3.228;2023-04-15T04:46:56;6.78;;;5.88;;
49578;SDS011;35483;50.828;3.228;2023-04-15T04:49:21;8.48;;;6.30;;
49578;SDS011;35483;50.828;3.228;2023-04-15T04:51:47;7.95;;;6.50;;
49578;SDS011;35483;50.828;3.228;2023-04-15T04:54:13;6.72;;;5.70;;
49578;SDS011;35483;50.828;3.228;2023-04-15T04:56:39;7.78;;;6.32;;
49578;SDS011;35483;50.828;3.228;2023-04-15T04:59:05;6.72;;;5.97;;
49578;SDS011;35483;50.828;3.228;2023-04-15T05:01:31;6.85;;;6.03;;
49578;SDS011;35483;50.828;3.228;2023-04-15T05:03:58;9.63;;;7.28;;
49578;SDS011;35483;50.828;3.228;2023-04-15T05:06:24;8.27;;;6.45;;
49578;SDS011;35483;50.828;3.228;2023-04-15T05:08:50;8.35;;;7.20;;
49578;SDS011;35483;50.828;3.228;2023-04-15T05:11:16;9.23;;;7.78;;
49578;SDS011;35483;50.828;3.228;2023-04-15T05:13:41;9.52;;;8.10;;
49578;SDS011;35483;50.828;3.228;2023-04-15T05:16:07;10.07;;;7.75;;
49578;SDS011;35483;50.828;3.228;2023-04-15T05:18:33;10.15;;;8.40;;
49578;SDS011;35483;50.828;3.228;2023-04-15T05:20:59;9.52;;;8.25;;
49578;SDS011;35483;50.828;3.228;2023-04-15T05:23:26;12.18;;;8.80;;
49578;SDS011;35483;50.828;3.228;2023-04-15T05:25:52;9.82;;;8.45;;
49578;SDS011;35483;50.828;3.228;2023-04-15T05:28:18;11.85;;;9.25;;
49578;SDS011;35483;50.828;3.228;2023-04-15T05:30:43;12.88;;;9.77;;
49578;SDS011;35483;50.828;3.228;2023-04-15T05:33:09;12.63;;;9.38;;
49578;SDS011;35483;50.828;3.228;2023-04-15T05:35:35;10.40;;;9.25;;
49578;SDS011;35483;50.828;3.228;2023-04-15T05:38:01;14.05;;;10.38;;
49578;SDS011;35483;50.828;3.228;2023-04-15T05:40:27;11.50;;;9.38;;
49578;SDS011;35483;50.828;3.228;2023-04-15T05:42:54;12.38;;;9.07;;
49578;SDS011;35483;50.828;3.228;2023-04-15T05:45:20;11.15;;;9.95;;
49578;SDS011;35483;50.828;3.228;2023-04-15T05:47:46;12.05;;;9.68;;
49578;SDS011;35483;50.828;3.228;2023-04-15T05:50:14;12.93;;;10.63;;
49578;SDS011;35483;50.828;3.228;2023-04-15T05:52:40;13.77;;;9.85;;
49578;SDS011;35483;50.828;3.228;2023-04-15T05:55:05;12.50;;;9.57;;
49578;SDS011;35483;50.828;3.228;2023-04-15T05:57:31;11.98;;;9.48;;
49578;SDS011;35483;50.828;3.228;2023-04-15T05:59:57;13.38;;;9.68;;
49578;SDS011;35483;50.828;3.228;2023-04-15T06:02:23;13.77;;;9.38;;
49578;SDS011;35483;50.828;3.228;2023-04-15T06:04:48;12.43;;;9.77;;
49578;SDS011;35483;50.828;3.228;2023-04-15T06:07:14;11.48;;;9.38;;
49578;SDS011;35483;50.828;3.228;2023-04-15T06:09:40;12.52;;;9.43;;
49578;SDS011;35483;50.828;3.228;2023-04-15T06:12:05;11.43;;;9.15;;
49578;SDS011;35483;50.828;3.228;2023-04-15T06:14:36;10.18;;;8.98;;
49578;SDS011;35483;50.828;3.228;2023-04-15T06:17:02;9.68;;;8.63;;
49578;SDS011;35483;50.828;3.228;2023-04-15T06:19:27;9.93;;;8.70;;
49578;SDS011;35483;50.828;3.228;2023-04-15T06:21:53;9.80;;;8.65;;
49578;SDS011;35483;50.828;3.228;2023-04-15T06:24:19;9.95;;;8.85;;
49578;SDS011;35483;50.828;3.228;2023-04-15T06:26:44;10.27;;;9.00;;
49578;SDS011;35483;50.828;3.228;2023-04-15T06:29:10;11.38;;;8.90;;
49578;SDS011;35483;50.828;3.228;2023-04-15T06:31:36;9.82;;;8.65;;
49578;SDS011;35483;50.828;3.228;2023-04-15T06:34:01;10.38;;;9.10;;
49578;SDS011;35483;50.828;3.228;2023-04-15T06:36:27;10.15;;;8.73;;
49578;SDS011;35483;50.828;3.228;2023-04-15T06:38:52;14.52;;;9.63;;
49578;SDS011;35483;50.828;3.228;2023-04-15T06:41:18;9.93;;;8.85;;
49578;SDS011;35483;50.828;3.228;2023-04-15T06:43:44;10.85;;;7.80;;
49578;SDS011;35483;50.828;3.228;2023-04-15T06:46:09;8.30;;;7.45;;
49578;SDS011;35483;50.828;3.228;2023-04-15T06:48:35;8.55;;;6.80;;
49578;SDS011;35483;50.828;3.228;2023-04-15T06:51:01;8.20;;;6.47;;
49578;SDS011;35483;50.828;3.228;2023-04-15T06:53:28;13.05;;;6.60;;
49578;SDS011;35483;50.828;3.228;2023-04-15T06:55:53;11.98;;;6.90;;
49578;SDS011;35483;50.828;3.228;2023-04-15T06:58:19;9.10;;;7.82;;
49578;SDS011;35483;50.828;3.228;2023-04-15T07:00:45;8.18;;;7.28;;
49578;SDS011;35483;50.828;3.228;2023-04-15T07:03:12;8.45;;;6.82;;
49578;SDS011;35483;50.828;3.228;2023-04-15T07:05:38;7.97;;;6.72;;
49578;SDS011;35483;50.828;3.228;2023-04-15T07:08:04;8.10;;;6.32;;
49578;SDS011;35483;50.828;3.228;2023-04-15T07:10:30;8.52;;;5.95;;
49578;SDS011;35483;50.828;3.228;2023-04-15T07:12:56;9.15;;;6.60;;
49578;SDS011;35483;50.828;3.228;2023-04-15T07:15:22;7.03;;;6.32;;
49578;SDS011;35483;50.828;3.228;2023-04-15T07:17:48;7.25;;;6.22;;
49578;SDS011;35483;50.828;3.228;2023-04-15T07:20:14;7.47;;;5.78;;
49578;SDS011;35483;50.828;3.228;2023-04-15T07:22:39;7.78;;;6.13;;
49578;SDS011;35483;50.828;3.228;2023-04-15T07:25:05;8.05;;;6.20;;
49578;SDS011;35483;50.828;3.228;2023-04-15T07:27:31;7.20;;;5.30;;
49578;SDS011;35483;50.828;3.228;2023-04-15T07:29:57;6.93;;;6.22;;
49578;SDS011;35483;50.828;3.228;2023-04-15T07:35:55;9.85;;;6.53;;
49578;SDS011;35483;50.828;3.228;2023-04-15T07:38:21;7.80;;;5.68;;
49578;SDS011;35483;50.828;3.228;2023-04-15T07:40:47;6.32;;;5.53;;
49578;SDS011;35483;50.828;3.228;2023-04-15T07:43:13;7.57;;;5.70;;
49578;SDS011;35483;50.828;3.228;2023-04-15T07:45:39;6.75;;;5.80;;
49578;SDS011;35483;50.828;3.228;2023-04-15T07:48:05;6.97;;;5.45;;
49578;SDS011;35483;50.828;3.228;2023-04-15T07:50:32;9.02;;;6.68;;
49578;SDS011;35483;50.828;3.228;2023-04-15T07:52:57;5.95;;;5.28;;
49578;SDS011;35483;50.828;3.228;2023-04-15T07:55:24;5.82;;;5.13;;
49578;SDS011;35483;50.828;3.228;2023-04-15T07:57:50;6.57;;;5.03;;
49578;SDS011;35483;50.828;3.228;2023-04-15T08:00:15;5.72;;;5.22;;
49578;SDS011;35483;50.828;3.228;2023-04-15T08:02:42;6.65;;;5.22;;
49578;SDS011;35483;50.828;3.228;2023-04-15T08:05:08;5.75;;;4.28;;
49578;SDS011;35483;50.828;3.228;2023-04-15T08:07:37;5.07;;;4.20;;
49578;SDS011;35483;50.828;3.228;2023-04-15T08:10:03;4.40;;;4.00;;
49578;SDS011;35483;50.828;3.228;2023-04-15T08:12:29;4.85;;;3.53;;
49578;SDS011;35483;50.828;3.228;2023-04-15T08:14:55;5.10;;;4.47;;
49578;SDS011;35483;50.828;3.228;2023-04-15T08:17:21;4.43;;;3.80;;
49578;SDS011;35483;50.828;3.228;2023-04-15T08:19:47;4.78;;;3.88;;
49578;SDS011;35483;50.828;3.228;2023-04-15T08:22:13;4.50;;;3.50;;
49578;SDS011;35483;50.828;3.228;2023-04-15T08:24:39;4.22;;;3.08;;
49578;SDS011;35483;50.828;3.228;2023-04-15T08:27:05;5.03;;;3.55;;
49578;SDS011;35483;50.828;3.228;2023-04-15T08:29:32;4.60;;;3.55;;
49578;SDS011;35483;50.828;3.228;2023-04-15T08:31:58;6.00;;;4.88;;
49578;SDS011;35483;50.828;3.228;2023-04-15T08:34:25;4.90;;;3.40;;
49578;SDS011;35483;50.828;3.228;2023-04-15T08:36:51;5.45;;;3.65;;
49578;SDS011;35483;50.828;3.228;2023-04-15T08:39:17;4.38;;;3.67;;
49578;SDS011;35483;50.828;3.228;2023-04-15T08:41:58;7.53;;;4.93;;
49578;SDS011;35483;50.828;3.228;2023-04-15T08:44:34;8.35;;;5.20;;
49578;SDS011;35483;50.828;3.228;2023-04-15T08:47:01;6.65;;;4.80;;
49578;SDS011;35483;50.828;3.228;2023-04-15T08:49:27;5.95;;;5.05;;
49578;SDS011;35483;50.828;3.228;2023-04-15T08:51:54;5.45;;;4.70;;
49578;SDS011;35483;50.828;3.228;2023-04-15T08:54:22;6.90;;;5.35;;
49578;SDS011;35483;50.828;3.228;2023-04-15T08:56:48;6.57;;;5.72;;
49578;SDS011;35483;50.828;3.228;2023-04-15T08:59:14;7.22;;;4.97;;
49578;SDS011;35483;50.828;3.228;2023-04-15T09:01:41;6.50;;;5.40;;
49578;SDS011;35483;50.828;3.228;2023-04-15T09:04:07;7.28;;;6.00;;
49578;SDS011;35483;50.828;3.228;2023-04-15T09:06:33;7.15;;;5.32;;
49578;SDS011;35483;50.828;3.228;2023-04-15T09:08:59;7.20;;;5.75;;
49578;SDS011;35483;50.828;3.228;2023-04-15T09:11:25;6.32;;;4.93;;
49578;SDS011;35483;50.828;3.228;2023-04-15T09:13:51;7.25;;;6.10;;
49578;SDS011;35483;50.828;3.228;2023-04-15T09:16:16;7.82;;;6.40;;
49578;SDS011;35483;50.828;3.228;2023-04-15T09:18:43;8.00;;;7.10;;
49578;SDS011;35483;50.828;3.228;2023-04-15T09:21:10;7.53;;;6.68;;
49578;SDS011;35483;50.828;3.228;2023-04-15T09:23:53;7.50;;;6.13;;
49578;SDS011;35483;50.828;3.228;2023-04-15T09:26:34;7.45;;;6.45;;
49578;SDS011;35483;50.828;3.228;2023-04-15T09:31:31;6.95;;;6.25;;
49578;SDS011;35483;50.828;3.228;2023-04-15T09:33:57;7.85;;;6.80;;
49578;SDS011;35483;50.828;3.228;2023-04-15T09:36:24;8.02;;;5.03;;
49578;SDS011;35483;50.828;3.228;2023-04-15T09:38:54;6.10;;;4.05;;
49578;SDS011;35483;50.828;3.228;2023-04-15T09:41:21;6.18;;;5.28;;
49578;SDS011;35483;50.828;3.228;2023-04-15T09:43:48;4.88;;;4.38;;
49578;SDS011;35483;50.828;3.228;2023-04-15T09:46:13;4.60;;;4.18;;
49578;SDS011;35483;50.828;3.228;2023-04-15T09:48:39;8.23;;;4.85;;
49578;SDS011;35483;50.828;3.228;2023-04-15T09:51:05;4.97;;;4.47;;
49578;SDS011;35483;50.828;3.228;2023-04-15T09:53:32;4.40;;;4.00;;
49578;SDS011;35483;50.828;3.228;2023-04-15T09:56:00;5.78;;;4.05;;
49578;SDS011;35483;50.828;3.228;2023-04-15T09:58:27;4.55;;;4.15;;
49578;SDS011;35483;50.828;3.228;2023-04-15T10:00:55;5.00;;;4.55;;
49578;SDS011;35483;50.828;3.228;2023-04-15T10:03:23;7.82;;;4.72;;
49578;SDS011;35483;50.828;3.228;2023-04-15T10:05:51;4.95;;;4.35;;
49578;SDS011;35483;50.828;3.228;2023-04-15T10:08:20;5.57;;;4.75;;
49578;SDS011;35483;50.828;3.228;2023-04-15T10:10:49;7.95;;;5.65;;
49578;SDS011;35483;50.828;3.228;2023-04-15T10:13:17;6.57;;;5.00;;
49578;SDS011;35483;50.828;3.228;2023-04-15T10:15:44;6.50;;;4.90;;
49578;SDS011;35483;50.828;3.228;2023-04-15T10:18:19;8.40;;;5.50;;
49578;SDS011;35483;50.828;3.228;2023-04-15T10:20:47;6.82;;;5.80;;
49578;SDS011;35483;50.828;3.228;2023-04-15T10:23:14;8.13;;;5.85;;
49578;SDS011;35483;50.828;3.228;2023-04-15T10:25:40;7.47;;;6.20;;
49578;SDS011;35483;50.828;3.228;2023-04-15T10:28:06;8.55;;;5.88;;
49578;SDS011;35483;50.828;3.228;2023-04-15T10:30:33;7.00;;;6.15;;
49578;SDS011;35483;50.828;3.228;2023-04-15T10:32:59;9.38;;;6.03;;
49578;SDS011;35483;50.828;3.228;2023-04-15T10:35:26;9.80;;;7.20;;
49578;SDS011;35483;50.828;3.228;2023-04-15T10:37:54;10.52;;;7.50;;
49578;SDS011;35483;50.828;3.228;2023-04-15T10:40:27;9.95;;;8.25;;
49578;SDS011;35483;50.828;3.228;2023-04-15T10:42:58;8.88;;;7.40;;
49578;SDS011;35483;50.828;3.228;2023-04-15T10:45:27;9.25;;;8.18;;
49578;SDS011;35483;50.828;3.228;2023-04-15T10:47:58;10.77;;;7.55;;
49578;SDS011;35483;50.828;3.228;2023-04-15T10:50:29;9.13;;;7.57;;
49578;SDS011;35483;50.828;3.228;2023-04-15T10:52:56;12.82;;;8.23;;
49578;SDS011;35483;50.828;3.228;2023-04-15T10:55:26;8.02;;;7.22;;
49578;SDS011;35483;50.828;3.228;2023-04-15T10:57:57;8.18;;;7.22;;
49578;SDS011;35483;50.828;3.228;2023-04-15T11:00:27;9.88;;;7.20;;
49578;SDS011;35483;50.828;3.228;2023-04-15T11:02:55;9.98;;;7.82;;
49578;SDS011;35483;50.828;3.228;2023-04-15T11:08:14;8.57;;;7.25;;
49578;SDS011;35483;50.828;3.228;2023-04-15T11:13:18;8.38;;;7.47;;
49578;SDS011;35483;50.828;3.228;2023-04-15T11:15:47;9.32;;;8.32;;
49578;SDS011;35483;50.828;3.228;2023-04-15T11:18:17;8.82;;;6.75;;
49578;SDS011;35483;50.828;3.228;2023-04-15T11:20:46;8.05;;;6.47;;
49578;SDS011;35483;50.828;3.228;2023-04-15T11:23:17;8.63;;;6.20;;
49578;SDS011;35483;50.828;3.228;2023-04-15T11:25:43;6.65;;;5.90;;
49578;SDS011;35483;50.828;3.228;2023-04-15T11:28:10;8.00;;;5.53;;
49578;SDS011;35483;50.828;3.228;2023-04-15T11:30:37;6.75;;;5.32;;
49578;SDS011;35483;50.828;3.228;2023-04-15T11:33:04;5.97;;;5.32;;
49578;SDS011;35483;50.828;3.228;2023-04-15T11:35:32;5.32;;;4.47;;
49578;SDS011;35483;50.828;3.228;2023-04-15T11:38:07;5.15;;;4.55;;
49578;SDS011;35483;50.828;3.228;2023-04-15T11:40:35;5.60;;;5.03;;
49578;SDS011;35483;50.828;3.228;2023-04-15T11:43:09;5.68;;;3.95;;
49578;SDS011;35483;50.828;3.228;2023-04-15T11:45:55;6.25;;;4.55;;
49578;SDS011;35483;50.828;3.228;2023-04-15T11:48:34;4.50;;;4.10;;
49578;SDS011;35483;50.828;3.228;2023-04-15T11:51:04;5.00;;;4.50;;
49578;SDS011;35483;50.828;3.228;2023-04-15T11:56:08;4.85;;;3.88;;
49578;SDS011;35483;50.828;3.228;2023-04-15T11:58:35;4.60;;;4.10;;
49578;SDS011;35483;50.828;3.228;2023-04-15T12:01:02;5.25;;;4.15;;
49578;SDS011;35483;50.828;3.228;2023-04-15T12:03:29;2.97;;;2.70;;
49578;SDS011;35483;50.828;3.228;2023-04-15T12:08:51;2.28;;;2.08;;
49578;SDS011;35483;50.828;3.228;2023-04-15T12:13:57;3.05;;;2.17;;
49578;SDS011;35483;50.828;3.228;2023-04-15T12:16:27;2.90;;;2.67;;
49578;SDS011;35483;50.828;3.228;2023-04-15T12:18:54;3.22;;;2.50;;
49578;SDS011;35483;50.828;3.228;2023-04-15T12:21:24;2.60;;;2.17;;
49578;SDS011;35483;50.828;3.228;2023-04-15T12:23:51;1.63;;;1.35;;
49578;SDS011;35483;50.828;3.228;2023-04-15T12:26:32;1.70;;;1.50;;
49578;SDS011;35483;50.828;3.228;2023-04-15T12:29:18;1.92;;;1.75;;
49578;SDS011;35483;50.828;3.228;2023-04-15T12:31:46;1.70;;;1.35;;
49578;SDS011;35483;50.828;3.228;2023-04-15T12:34:16;1.58;;;1.40;;
49578;SDS011;35483;50.828;3.228;2023-04-15T12:36:42;2.58;;;2.33;;
49578;SDS011;35483;50.828;3.228;2023-04-15T12:39:08;2.70;;;2.20;;
49578;SDS011;35483;50.828;3.228;2023-04-15T12:41:34;2.63;;;2.10;;
49578;SDS011;35483;50.828;3.228;2023-04-15T12:44:00;1.25;;;1.15;;
49578;SDS011;35483;50.828;3.228;2023-04-15T12:46:26;2.05;;;1.50;;
49578;SDS011;35483;50.828;3.228;2023-04-15T12:48:52;2.08;;;1.60;;
49578;SDS011;35483;50.828;3.228;2023-04-15T12:51:18;2.10;;;1.85;;
49578;SDS011;35483;50.828;3.228;2023-04-15T12:53:47;2.80;;;2.47;;
49578;SDS011;35483;50.828;3.228;2023-04-15T12:56:13;3.65;;;2.10;;
49578;SDS011;35483;50.828;3.228;2023-04-15T12:58:40;2.60;;;2.40;;
49578;SDS011;35483;50.828;3.228;2023-04-15T13:01:07;3.40;;;2.75;;
49578;SDS011;35483;50.828;3.228;2023-04-15T13:03:32;1.92;;;1.60;;
49578;SDS011;35483;50.828;3.228;2023-04-15T13:05:58;1.98;;;1.63;;
49578;SDS011;35483;50.828;3.228;2023-04-15T13:08:26;2.25;;;1.40;;
49578;SDS011;35483;50.828;3.228;2023-04-15T13:10:52;2.88;;;1.65;;
49578;SDS011;35483;50.828;3.228;2023-04-15T13:13:17;2.00;;;1.77;;
49578;SDS011;35483;50.828;3.228;2023-04-15T13:15:43;3.22;;;1.95;;
49578;SDS011;35483;50.828;3.228;2023-04-15T13:18:09;2.03;;;1.52;;
49578;SDS011;35483;50.828;3.228;2023-04-15T13:20:35;2.25;;;2.05;;
49578;SDS011;35483;50.828;3.228;2023-04-15T13:23:01;3.88;;;2.20;;
49578;SDS011;35483;50.828;3.228;2023-04-15T13:25:27;1.90;;;1.77;;
49578;SDS011;35483;50.828;3.228;2023-04-15T13:27:52;3.00;;;2.50;;
49578;SDS011;35483;50.828;3.228;2023-04-15T13:30:18;2.50;;;2.30;;
49578;SDS011;35483;50.828;3.228;2023-04-15T13:32:44;2.92;;;2.60;;
49578;SDS011;35483;50.828;3.228;2023-04-15T13:35:10;2.95;;;2.35;;
49578;SDS011;35483;50.828;3.228;2023-04-15T13:37:36;5.80;;;2.50;;
49578;SDS011;35483;50.828;3.228;2023-04-15T13:40:03;6.32;;;3.45;;
49578;SDS011;35483;50.828;3.228;2023-04-15T13:42:31;6.85;;;3.92;;
49578;SDS011;35483;50.828;3.228;2023-04-15T13:44:57;7.07;;;4.72;;
49578;SDS011;35483;50.828;3.228;2023-04-15T13:47:22;7.07;;;6.15;;
49578;SDS011;35483;50.828;3.228;2023-04-15T13:49:48;5.97;;;5.15;;
49578;SDS011;35483;50.828;3.228;2023-04-15T13:52:15;6.63;;;5.28;;
49578;SDS011;35483;50.828;3.228;2023-04-15T13:54:41;9.32;;;5.10;;
49578;SDS011;35483;50.828;3.228;2023-04-15T13:57:06;6.38;;;4.68;;
49578;SDS011;35483;50.828;3.228;2023-04-15T13:59:33;7.85;;;6.70;;
49578;SDS011;35483;50.828;3.228;2023-04-15T14:01:59;7.10;;;4.78;;
49578;SDS011;35483;50.828;3.228;2023-04-15T14:04:24;8.02;;;5.47;;
49578;SDS011;35483;50.828;3.228;2023-04-15T14:06:50;6.70;;;5.60;;
49578;SDS011;35483;50.828;3.228;2023-04-15T14:09:16;7.18;;;6.10;;
49578;SDS011;35483;50.828;3.228;2023-04-15T14:11:42;8.98;;;6.78;;
49578;SDS011;35483;50.828;3.228;2023-04-15T14:14:08;15.20;;;10.52;;
49578;SDS011;35483;50.828;3.228;2023-04-15T14:16:33;6.95;;;6.25;;
49578;SDS011;35483;50.828;3.228;2023-04-15T14:19:00;5.22;;;4.50;;
49578;SDS011;35483;50.828;3.228;2023-04-15T14:21:26;7.38;;;5.57;;
49578;SDS011;35483;50.828;3.228;2023-04-15T14:23:52;8.20;;;5.40;;
49578;SDS011;35483;50.828;3.228;2023-04-15T14:26:18;5.35;;;4.85;;
49578;SDS011;35483;50.828;3.228;2023-04-15T14:28:44;6.45;;;5.00;;
49578;SDS011;35483;50.828;3.228;2023-04-15T14:31:10;4.68;;;4.00;;
49578;SDS011;35483;50.828;3.228;2023-04-15T14:33:36;5.00;;;4.50;;
49578;SDS011;35483;50.828;3.228;2023-04-15T14:36:01;4.05;;;3.67;;
49578;SDS011;35483;50.828;3.228;2023-04-15T14:38:28;4.32;;;3.92;;
49578;SDS011;35483;50.828;3.228;2023-04-15T14:40:53;5.28;;;3.92;;
49578;SDS011;35483;50.828;3.228;2023-04-15T14:43:19;3.85;;;3.15;;
49578;SDS011;35483;50.828;3.228;2023-04-15T14:45:45;4.80;;;3.38;;
49578;SDS011;35483;50.828;3.228;2023-04-15T14:48:11;4.28;;;3.35;;
49578;SDS011;35483;50.828;3.228;2023-04-15T14:50:37;5.20;;;4.38;;
49578;SDS011;35483;50.828;3.228;2023-04-15T14:53:03;6.70;;;3.90;;
49578;SDS011;35483;50.828;3.228;2023-04-15T14:55:29;5.68;;;3.80;;
49578;SDS011;35483;50.828;3.228;2023-04-15T14:57:55;5.45;;;4.20;;
49578;SDS011;35483;50.828;3.228;2023-04-15T15:00:20;7.47;;;4.00;;
49578;SDS011;35483;50.828;3.228;2023-04-15T15:02:46;5.45;;;3.90;;